sensor_id;sensor_type;location;lat;lon;timestamp;temperature;humidity
4896;DHT22;2463;49.948;8.472;2023-09-19T00:00:31;17.80;99.90
4896;DHT22;2463;49.948;8.472;2023-09-19T00:03:00;17.80;99.90
4896;DHT22;2463;49.948;8.472;2023-09-19T00:05:28;17.70;99.90
4896;DHT22;2463;49.948;8.472;2023-09-19T00:07:56;17.70;99.90
4896;DHT22;2463;49.948;8.472;2023-09-19T00:10:26;17.70;99.90
4896;DHT22;2463;49.948;8.472;2023-09-19T00:12:54;17.70;99.90
4896;DHT22;2463;49.948;8.472;2023-09-19T00:15:23;17.70;99.90
4896;DHT22;2463;49.948;8.472;2023-09-19T00:17:49;17.70;99.90
4896;DHT22;2463;49.948;8.472;2023-09-19T00:20:19;17.70;99.90
4896;DHT22;2463;49.948;8.472;2023-09-19T00:22:45;17.70;99.90
4896;DHT22;2463;49.948;8.472;2023-09-19T00:25:12;17.80;99.90
4896;DHT22;2463;49.948;8.472;2023-09-19T00:27:42;17.70;99.90
4896;DHT22;2463;49.948;8.472;2023-09-19T00:30:10;17.80;99.90
4896;DHT22;2463;49.948;8.472;2023-09-19T00:32:41;17.80;99.90
4896;DHT22;2463;49.948;8.472;2023-09-19T00:35:08;17.80;99.90
4896;DHT22;2463;49.948;8.472;2023-09-19T00:37:38;17.90;99.90
4896;DHT22;2463;49.948;8.472;2023-09-19T00:40:07;17.90;99.90
4896;DHT22;2463;49.948;8.472;2023-09-19T00:42:45;17.90;99.90
4896;DHT22;2463;49.948;8.472;2023-09-19T00:45:14;17.90;99.90
4896;DHT22;2463;49.948;8.472;2023-09-19T00:47:43;17.90;99.90
4896;DHT22;2463;49.948;8.472;2023-09-19T00:50:11;18.00;99.90
4896;DHT22;2463;49.948;8.472;2023-09-19T00:52:42;17.90;99.90
4896;DHT22;2463;49.948;8.472;2023-09-19T00:55:11;17.90;99.90
4896;DHT22;2463;49.948;8.472;2023-09-19T00:57:41;17.90;99.90
4896;DHT22;2463;49.948;8.472;2023-09-19T01:00:09;17.90;99.90
4896;DHT22;2463;49.948;8.472;2023-09-19T01:02:42;17.90;99.90
4896;DHT22;2463;49.948;8.472;2023-09-19T01:05:10;17.90;99.90
4896;DHT22;2463;49.948;8.472;2023-09-19T02:24:41;17.90;99.90
4896;DHT22;2463;49.948;8.472;2023-09-19T02:27:07;17.90;99.90
4896;DHT22;2463;49.948;8.472;2023-09-19T02:29:34;17.90;99.90
4896;DHT22;2463;49.948;8.472;2023-09-19T02:32:01;17.90;99.90
4896;DHT22;2463;49.948;8.472;2023-09-19T02:34:29;17.80;99.90
4896;DHT22;2463;49.948;8.472;2023-09-19T02:36:56;17.80;99.90
4896;DHT22;2463;49.948;8.472;2023-09-19T02:39:22;17.80;99.90
4896;DHT22;2463;49.948;8.472;2023-09-19T02:41:50;17.80;99.90
4896;DHT22;2463;49.948;8.472;2023-09-19T02:44:16;17.80;99.90
4896;DHT22;2463;49.948;8.472;2023-09-19T02:46:43;17.70;99.90
4896;DHT22;2463;49.948;8.472;2023-09-19T02:49:10;17.70;99.90
4896;DHT22;2463;49.948;8.472;2023-09-19T02:51:39;17.70;99.90
4896;DHT22;2463;49.948;8.472;2023-09-19T02:54:07;17.70;99.90
4896;DHT22;2463;49.948;8.472;2023-09-19T02:56:34;17.70;99.90
4896;DHT22;2463;49.948;8.472;2023-09-19T02:59:02;17.60;99.90
4896;DHT22;2463;49.948;8.472;2023-09-19T03:01:29;17.60;99.90
4896;DHT22;2463;49.948;8.472;2023-09-19T03:03:56;17.60;99.90
4896;DHT22;2463;49.948;8.472;2023-09-19T03:06:23;17.60;99.90
4896;DHT22;2463;49.948;8.472;2023-09-19T03:08:50;17.60;99.90
4896;DHT22;2463;49.948;8.472;2023-09-19T03:11:18;17.50;99.90
4896;DHT22;2463;49.948;8.472;2023-09-19T03:13:53;17.50;99.90
4896;DHT22;2463;49.948;8.472;2023-09-19T03:16:20;17.50;99.90
4896;DHT22;2463;49.948;8.472;2023-09-19T03:18:48;17.50;99.90
4896;DHT22;2463;49.948;8.472;2023-09-19T03:21:16;17.40;99.90
4896;DHT22;2463;49.948;8.472;2023-09-19T03:23:43;17.40;99.90
4896;DHT22;2463;49.948;8.472;2023-09-19T03:26:13;17.40;99.90
4896;DHT22;2463;49.948;8.472;2023-09-19T03:28:43;17.40;99.90
4896;DHT22;2463;49.948;8.472;2023-09-19T03:31:10;17.30;99.90
4896;DHT22;2463;49.948;8.472;2023-09-19T03:33:37;17.30;99.90
4896;DHT22;2463;49.948;8.472;2023-09-19T03:36:05;17.20;99.90
4896;DHT22;2463;49.948;8.472;2023-09-19T03:38:32;17.20;99.90
4896;DHT22;2463;49.948;8.472;2023-09-19T03:41:01;17.20;99.90
4896;DHT22;2463;49.948;8.472;2023-09-19T03:43:28;17.20;99.90
4896;DHT22;2463;49.948;8.472;2023-09-19T03:45:55;17.20;99.90
4896;DHT22;2463;49.948;8.472;2023-09-19T03:48:22;17.20;99.90
4896;DHT22;2463;49.948;8.472;2023-09-19T03:50:49;17.20;99.90
4896;DHT22;2463;49.948;8.472;2023-09-19T03:53:17;17.20;99.90
4896;DHT22;2463;49.948;8.472;2023-09-19T03:55:45;17.20;99.90
4896;DHT22;2463;49.948;8.472;2023-09-19T03:58:12;17.20;99.90
4896;DHT22;2463;49.948;8.472;2023-09-19T04:00:40;17.20;99.90
4896;DHT22;2463;49.948;8.472;2023-09-19T04:03:07;17.20;99.90
4896;DHT22;2463;49.948;8.472;2023-09-19T04:05:34;17.10;99.90
4896;DHT22;2463;49.948;8.472;2023-09-19T04:08:01;17.10;99.90
4896;DHT22;2463;49.948;8.472;2023-09-19T04:10:28;17.00;99.90
4896;DHT22;2463;49.948;8.472;2023-09-19T04:12:56;17.00;99.90
4896;DHT22;2463;49.948;8.472;2023-09-19T04:15:23;16.90;99.90
4896;DHT22;2463;49.948;8.472;2023-09-19T04:17:51;17.00;99.90
4896;DHT22;2463;49.948;8.472;2023-09-19T04:20:18;17.00;99.90
4896;DHT22;2463;49.948;8.472;2023-09-19T04:22:46;17.00;99.90
4896;DHT22;2463;49.948;8.472;2023-09-19T04:25:13;17.00;99.90
4896;DHT22;2463;49.948;8.472;2023-09-19T04:27:40;17.10;99.90
4896;DHT22;2463;49.948;8.472;2023-09-19T04:30:08;17.10;99.90
4896;DHT22;2463;49.948;8.472;2023-09-19T04:32:38;17.10;99.90
4896;DHT22;2463;49.948;8.472;2023-09-19T04:35:09;17.10;99.90
4896;DHT22;2463;49.948;8.472;2023-09-19T04:37:38;17.10;99.90
4896;DHT22;2463;49.948;8.472;2023-09-19T04:40:09;17.10;99.90
4896;DHT22;2463;49.948;8.472;2023-09-19T04:42:40;17.10;99.90
4896;DHT22;2463;49.948;8.472;2023-09-19T04:45:07;17.20;99.90
4896;DHT22;2463;49.948;8.472;2023-09-19T04:47:39;17.10;99.90
4896;DHT22;2463;49.948;8.472;2023-09-19T04:50:08;17.10;99.90
4896;DHT22;2463;49.948;8.472;2023-09-19T04:52:41;17.10;99.90
4896;DHT22;2463;49.948;8.472;2023-09-19T04:55:13;17.00;99.90
4896;DHT22;2463;49.948;8.472;2023-09-19T04:57:50;17.00;99.90
4896;DHT22;2463;49.948;8.472;2023-09-19T05:00:19;17.00;99.90
4896;DHT22;2463;49.948;8.472;2023-09-19T05:02:56;16.90;99.90
4896;DHT22;2463;49.948;8.472;2023-09-19T05:05:23;16.80;99.90
4896;DHT22;2463;49.948;8.472;2023-09-19T05:07:52;16.80;99.90
4896;DHT22;2463;49.948;8.472;2023-09-19T05:10:22;16.80;99.90
4896;DHT22;2463;49.948;8.472;2023-09-19T05:12:53;16.80;99.90
4896;DHT22;2463;49.948;8.472;2023-09-19T05:15:20;16.80;99.90
4896;DHT22;2463;49.948;8.472;2023-09-19T05:17:50;16.70;99.90
4896;DHT22;2463;49.948;8.472;2023-09-19T05:20:22;16.70;99.90
4896;DHT22;2463;49.948;8.472;2023-09-19T05:23:05;16.70;99.90
4896;DHT22;2463;49.948;8.472;2023-09-19T05:25:37;16.80;99.90
4896;DHT22;2463;49.948;8.472;2023-09-19T05:28:09;16.70;99.90
4896;DHT22;2463;49.948;8.472;2023-09-19T05:30:38;16.70;99.90
4896;DHT22;2463;49.948;8.472;2023-09-19T05:33:12;16.70;99.90
4896;DHT22;2463;49.948;8.472;2023-09-19T05:35:39;16.70;99.90
4896;DHT22;2463;49.948;8.472;2023-09-19T05:38:08;16.70;99.90
4896;DHT22;2463;49.948;8.472;2023-09-19T05:40:40;16.70;99.90
4896;DHT22;2463;49.948;8.472;2023-09-19T05:43:11;16.70;99.90
4896;DHT22;2463;49.948;8.472;2023-09-19T05:45:38;16.70;99.90
4896;DHT22;2463;49.948;8.472;2023-09-19T05:48:11;16.70;99.90
4896;DHT22;2463;49.948;8.472;2023-09-19T05:50:40;16.70;99.90
4896;DHT22;2463;49.948;8.472;2023-09-19T05:53:07;16.60;99.90
4896;DHT22;2463;49.948;8.472;2023-09-19T05:55:34;16.60;99.90
4896;DHT22;2463;49.948;8.472;2023-09-19T05:58:02;16.60;99.90
4896;DHT22;2463;49.948;8.472;2023-09-19T06:00:30;16.70;99.90
4896;DHT22;2463;49.948;8.472;2023-09-19T06:02:59;16.70;99.90
4896;DHT22;2463;49.948;8.472;2023-09-19T06:05:26;16.70;99.90
4896;DHT22;2463;49.948;8.472;2023-09-19T06:07:54;16.80;99.90
4896;DHT22;2463;49.948;8.472;2023-09-19T06:10:21;16.80;99.90
4896;DHT22;2463;49.948;8.472;2023-09-19T06:12:49;16.80;99.90
4896;DHT22;2463;49.948;8.472;2023-09-19T06:15:16;16.80;99.90
4896;DHT22;2463;49.948;8.472;2023-09-19T06:17:49;16.90;99.90
4896;DHT22;2463;49.948;8.472;2023-09-19T06:20:16;17.00;99.90
4896;DHT22;2463;49.948;8.472;2023-09-19T06:22:44;17.00;99.90
4896;DHT22;2463;49.948;8.472;2023-09-19T06:25:14;17.10;99.90
4896;DHT22;2463;49.948;8.472;2023-09-19T06:27:51;17.20;99.90
4896;DHT22;2463;49.948;8.472;2023-09-19T06:30:21;17.20;99.90
4896;DHT22;2463;49.948;8.472;2023-09-19T06:32:54;17.30;99.90
4896;DHT22;2463;49.948;8.472;2023-09-19T06:35:21;17.30;99.90
4896;DHT22;2463;49.948;8.472;2023-09-19T06:37:48;17.30;99.90
4896;DHT22;2463;49.948;8.472;2023-09-19T06:40:17;17.30;99.90
4896;DHT22;2463;49.948;8.472;2023-09-19T06:42:51;17.40;99.90
4896;DHT22;2463;49.948;8.472;2023-09-19T06:45:20;17.50;99.90
4896;DHT22;2463;49.948;8.472;2023-09-19T06:47:50;17.50;99.90
4896;DHT22;2463;49.948;8.472;2023-09-19T06:50:18;17.50;99.90
4896;DHT22;2463;49.948;8.472;2023-09-19T06:52:46;17.50;99.90
4896;DHT22;2463;49.948;8.472;2023-09-19T06:55:17;17.60;99.90
4896;DHT22;2463;49.948;8.472;2023-09-19T06:57:46;17.70;99.90
4896;DHT22;2463;49.948;8.472;2023-09-19T07:00:13;17.80;99.90
4896;DHT22;2463;49.948;8.472;2023-09-19T07:03:07;17.90;99.90
4896;DHT22;2463;49.948;8.472;2023-09-19T07:05:35;17.90;99.90
4896;DHT22;2463;49.948;8.472;2023-09-19T07:08:07;18.00;99.90
4896;DHT22;2463;49.948;8.472;2023-09-19T07:10:36;18.10;99.90
4896;DHT22;2463;49.948;8.472;2023-09-19T07:13:04;18.10;99.90
4896;DHT22;2463;49.948;8.472;2023-09-19T07:15:33;18.20;99.90
4896;DHT22;2463;49.948;8.472;2023-09-19T07:18:02;18.30;99.90
4896;DHT22;2463;49.948;8.472;2023-09-19T07:20:29;18.40;99.90
4896;DHT22;2463;49.948;8.472;2023-09-19T07:22:59;18.50;99.90
4896;DHT22;2463;49.948;8.472;2023-09-19T07:25:27;18.60;99.90
4896;DHT22;2463;49.948;8.472;2023-09-19T07:27:58;18.70;99.90
4896;DHT22;2463;49.948;8.472;2023-09-19T07:30:27;18.70;99.90
4896;DHT22;2463;49.948;8.472;2023-09-19T07:32:54;18.80;99.90
4896;DHT22;2463;49.948;8.472;2023-09-19T07:35:21;18.90;99.90
4896;DHT22;2463;49.948;8.472;2023-09-19T07:37:49;19.00;99.90
4896;DHT22;2463;49.948;8.472;2023-09-19T07:40:18;19.00;99.90
4896;DHT22;2463;49.948;8.472;2023-09-19T07:42:45;19.00;99.90
4896;DHT22;2463;49.948;8.472;2023-09-19T07:45:13;19.10;99.90
4896;DHT22;2463;49.948;8.472;2023-09-19T07:47:49;19.10;99.90
4896;DHT22;2463;49.948;8.472;2023-09-19T07:50:17;19.10;99.90
4896;DHT22;2463;49.948;8.472;2023-09-19T07:52:48;19.00;99.90
4896;DHT22;2463;49.948;8.472;2023-09-19T07:55:17;19.00;99.90
4896;DHT22;2463;49.948;8.472;2023-09-19T07:57:46;19.00;99.90
4896;DHT22;2463;49.948;8.472;2023-09-19T08:00:13;19.10;99.90
4896;DHT22;2463;49.948;8.472;2023-09-19T08:02:41;19.20;99.90
4896;DHT22;2463;49.948;8.472;2023-09-19T08:05:09;19.20;99.90
4896;DHT22;2463;49.948;8.472;2023-09-19T08:07:45;19.30;99.90
4896;DHT22;2463;49.948;8.472;2023-09-19T08:10:15;19.30;99.90
4896;DHT22;2463;49.948;8.472;2023-09-19T08:12:43;19.40;99.90
4896;DHT22;2463;49.948;8.472;2023-09-19T08:15:20;19.40;99.90
4896;DHT22;2463;49.948;8.472;2023-09-19T08:17:50;19.40;99.90
4896;DHT22;2463;49.948;8.472;2023-09-19T08:20:17;19.50;99.90
4896;DHT22;2463;49.948;8.472;2023-09-19T08:22:49;19.60;99.90
4896;DHT22;2463;49.948;8.472;2023-09-19T08:25:19;19.60;99.90
4896;DHT22;2463;49.948;8.472;2023-09-19T08:27:46;19.70;99.90
4896;DHT22;2463;49.948;8.472;2023-09-19T08:30:16;19.80;99.90
4896;DHT22;2463;49.948;8.472;2023-09-19T08:32:44;19.90;99.90
4896;DHT22;2463;49.948;8.472;2023-09-19T08:35:13;19.80;99.90
4896;DHT22;2463;49.948;8.472;2023-09-19T08:37:42;19.90;99.90
4896;DHT22;2463;49.948;8.472;2023-09-19T08:40:09;20.00;99.90
4896;DHT22;2463;49.948;8.472;2023-09-19T08:42:51;20.10;99.90
4896;DHT22;2463;49.948;8.472;2023-09-19T08:45:23;20.10;99.90
4896;DHT22;2463;49.948;8.472;2023-09-19T08:48:24;20.30;99.90
4896;DHT22;2463;49.948;8.472;2023-09-19T08:53:44;20.40;99.90
4896;DHT22;2463;49.948;8.472;2023-09-19T08:56:17;20.60;99.90
4896;DHT22;2463;49.948;8.472;2023-09-19T08:58:50;20.70;99.90
4896;DHT22;2463;49.948;8.472;2023-09-19T09:01:21;20.80;99.90
4896;DHT22;2463;49.948;8.472;2023-09-19T09:03:53;21.10;99.90
4896;DHT22;2463;49.948;8.472;2023-09-19T09:06:21;21.20;99.90
4896;DHT22;2463;49.948;8.472;2023-09-19T09:08:48;21.40;99.90
4896;DHT22;2463;49.948;8.472;2023-09-19T09:11:15;21.50;99.90
4896;DHT22;2463;49.948;8.472;2023-09-19T09:13:44;21.60;99.90
4896;DHT22;2463;49.948;8.472;2023-09-19T09:16:11;21.60;99.90
4896;DHT22;2463;49.948;8.472;2023-09-19T09:18:40;21.60;99.90
4896;DHT22;2463;49.948;8.472;2023-09-19T09:21:07;21.60;99.90
4896;DHT22;2463;49.948;8.472;2023-09-19T09:23:36;21.70;99.90
4896;DHT22;2463;49.948;8.472;2023-09-19T09:26:03;21.80;99.90
4896;DHT22;2463;49.948;8.472;2023-09-19T09:28:34;22.00;99.90
4896;DHT22;2463;49.948;8.472;2023-09-19T09:31:02;22.00;99.90
4896;DHT22;2463;49.948;8.472;2023-09-19T09:33:36;22.10;99.90
4896;DHT22;2463;49.948;8.472;2023-09-19T09:36:03;22.30;99.90
4896;DHT22;2463;49.948;8.472;2023-09-19T09:38:47;22.30;99.90
4896;DHT22;2463;49.948;8.472;2023-09-19T09:41:36;22.40;99.90
4896;DHT22;2463;49.948;8.472;2023-09-19T09:44:14;22.50;99.90
4896;DHT22;2463;49.948;8.472;2023-09-19T09:46:43;22.60;99.90
4896;DHT22;2463;49.948;8.472;2023-09-19T09:49:23;22.70;99.90
4896;DHT22;2463;49.948;8.472;2023-09-19T09:54:35;22.70;99.90
4896;DHT22;2463;49.948;8.472;2023-09-19T09:57:09;22.60;99.90
4896;DHT22;2463;49.948;8.472;2023-09-19T09:59:52;22.80;99.90
4896;DHT22;2463;49.948;8.472;2023-09-19T10:02:35;22.70;99.90
4896;DHT22;2463;49.948;8.472;2023-09-19T10:05:17;22.90;99.90
4896;DHT22;2463;49.948;8.472;2023-09-19T10:07:48;23.10;99.90
4896;DHT22;2463;49.948;8.472;2023-09-19T10:10:30;23.40;99.90
4896;DHT22;2463;49.948;8.472;2023-09-19T10:13:06;23.60;99.90
4896;DHT22;2463;49.948;8.472;2023-09-19T10:15:34;23.70;99.90
4896;DHT22;2463;49.948;8.472;2023-09-19T10:18:05;23.80;99.90
4896;DHT22;2463;49.948;8.472;2023-09-19T10:20:36;23.70;99.90
4896;DHT22;2463;49.948;8.472;2023-09-19T10:23:09;23.80;99.90
4896;DHT22;2463;49.948;8.472;2023-09-19T10:25:41;24.00;99.90
4896;DHT22;2463;49.948;8.472;2023-09-19T10:28:13;24.30;99.90
4896;DHT22;2463;49.948;8.472;2023-09-19T10:30:45;24.30;99.90
4896;DHT22;2463;49.948;8.472;2023-09-19T10:33:16;24.30;99.90
4896;DHT22;2463;49.948;8.472;2023-09-19T10:35:45;24.40;99.90
4896;DHT22;2463;49.948;8.472;2023-09-19T10:38:14;24.30;99.90
4896;DHT22;2463;49.948;8.472;2023-09-19T10:40:48;24.10;99.90
4896;DHT22;2463;49.948;8.472;2023-09-19T10:43:18;24.40;99.90
4896;DHT22;2463;49.948;8.472;2023-09-19T10:45:46;24.70;99.90
4896;DHT22;2463;49.948;8.472;2023-09-19T10:48:16;25.00;99.90
4896;DHT22;2463;49.948;8.472;2023-09-19T10:51:07;25.30;99.90
4896;DHT22;2463;49.948;8.472;2023-09-19T10:53:59;25.40;99.90
4896;DHT22;2463;49.948;8.472;2023-09-19T10:56:33;25.40;99.90
4896;DHT22;2463;49.948;8.472;2023-09-19T10:59:12;25.40;99.90
4896;DHT22;2463;49.948;8.472;2023-09-19T11:01:44;25.40;99.90
4896;DHT22;2463;49.948;8.472;2023-09-19T11:07:01;25.60;99.90
4896;DHT22;2463;49.948;8.472;2023-09-19T11:15:04;26.30;97.90
4896;DHT22;2463;49.948;8.472;2023-09-19T11:17:35;26.40;98.60
4896;DHT22;2463;49.948;8.472;2023-09-19T11:30:45;26.40;99.60
4896;DHT22;2463;49.948;8.472;2023-09-19T11:41:37;26.40;95.90
4896;DHT22;2463;49.948;8.472;2023-09-19T11:46:56;26.70;97.00
4896;DHT22;2463;49.948;8.472;2023-09-19T11:49:29;26.50;95.20
4896;DHT22;2463;49.948;8.472;2023-09-19T11:51:59;26.50;95.50
4896;DHT22;2463;49.948;8.472;2023-09-19T11:54:32;26.40;95.80
4896;DHT22;2463;49.948;8.472;2023-09-19T11:57:00;26.50;96.90
4896;DHT22;2463;49.948;8.472;2023-09-19T11:59:31;26.70;96.70
4896;DHT22;2463;49.948;8.472;2023-09-19T12:02:05;26.80;95.00
4896;DHT22;2463;49.948;8.472;2023-09-19T12:04:40;26.90;94.90
4896;DHT22;2463;49.948;8.472;2023-09-19T12:07:10;27.00;94.40
4896;DHT22;2463;49.948;8.472;2023-09-19T12:09:46;27.10;94.00
4896;DHT22;2463;49.948;8.472;2023-09-19T12:12:22;27.20;94.40
4896;DHT22;2463;49.948;8.472;2023-09-19T12:14:50;26.90;92.70
4896;DHT22;2463;49.948;8.472;2023-09-19T12:17:17;26.90;93.60
4896;DHT22;2463;49.948;8.472;2023-09-19T12:19:56;27.00;94.10
4896;DHT22;2463;49.948;8.472;2023-09-19T12:22:23;27.10;94.30
4896;DHT22;2463;49.948;8.472;2023-09-19T12:24:49;27.10;93.70
4896;DHT22;2463;49.948;8.472;2023-09-19T12:27:17;27.00;91.70
4896;DHT22;2463;49.948;8.472;2023-09-19T12:29:48;26.90;92.00
4896;DHT22;2463;49.948;8.472;2023-09-19T12:32:36;26.90;92.30
4896;DHT22;2463;49.948;8.472;2023-09-19T12:35:07;26.80;92.10
4896;DHT22;2463;49.948;8.472;2023-09-19T12:37:52;26.80;92.50
4896;DHT22;2463;49.948;8.472;2023-09-19T12:40:22;26.80;92.00
4896;DHT22;2463;49.948;8.472;2023-09-19T12:42:49;26.50;91.80
4896;DHT22;2463;49.948;8.472;2023-09-19T12:45:17;26.40;94.20
4896;DHT22;2463;49.948;8.472;2023-09-19T12:53:36;26.70;93.40
4896;DHT22;2463;49.948;8.472;2023-09-19T12:56:09;26.70;92.70
4896;DHT22;2463;49.948;8.472;2023-09-19T12:58:53;26.60;91.70
4896;DHT22;2463;49.948;8.472;2023-09-19T13:01:23;26.50;93.00
4896;DHT22;2463;49.948;8.472;2023-09-19T13:04:21;26.40;92.40
4896;DHT22;2463;49.948;8.472;2023-09-19T13:06:56;26.10;93.00
4896;DHT22;2463;49.948;8.472;2023-09-19T13:09:28;26.20;93.00
4896;DHT22;2463;49.948;8.472;2023-09-19T13:12:01;26.20;93.10
4896;DHT22;2463;49.948;8.472;2023-09-19T13:14:30;26.30;92.90
4896;DHT22;2463;49.948;8.472;2023-09-19T13:17:07;26.20;92.70
4896;DHT22;2463;49.948;8.472;2023-09-19T13:19:49;26.10;93.30
4896;DHT22;2463;49.948;8.472;2023-09-19T13:22:38;26.20;93.90
4896;DHT22;2463;49.948;8.472;2023-09-19T13:25:08;26.30;93.30
4896;DHT22;2463;49.948;8.472;2023-09-19T13:27:41;26.40;92.40
4896;DHT22;2463;49.948;8.472;2023-09-19T13:30:08;26.20;92.20
4896;DHT22;2463;49.948;8.472;2023-09-19T13:32:36;26.10;91.60
4896;DHT22;2463;49.948;8.472;2023-09-19T13:35:03;25.90;92.80
4896;DHT22;2463;49.948;8.472;2023-09-19T13:37:33;25.80;91.30
4896;DHT22;2463;49.948;8.472;2023-09-19T13:40:01;25.60;91.30
4896;DHT22;2463;49.948;8.472;2023-09-19T13:42:29;25.60;93.40
4896;DHT22;2463;49.948;8.472;2023-09-19T13:44:56;25.50;92.30
4896;DHT22;2463;49.948;8.472;2023-09-19T13:47:23;25.40;92.30
4896;DHT22;2463;49.948;8.472;2023-09-19T13:49:52;25.40;93.40
4896;DHT22;2463;49.948;8.472;2023-09-19T13:52:20;25.40;94.00
4896;DHT22;2463;49.948;8.472;2023-09-19T13:54:52;25.40;91.70
4896;DHT22;2463;49.948;8.472;2023-09-19T13:57:23;25.20;92.30
4896;DHT22;2463;49.948;8.472;2023-09-19T13:59:51;24.80;92.20
4896;DHT22;2463;49.948;8.472;2023-09-19T14:02:18;24.60;92.80
4896;DHT22;2463;49.948;8.472;2023-09-19T14:04:45;24.40;92.50
4896;DHT22;2463;49.948;8.472;2023-09-19T14:07:11;24.30;93.30
4896;DHT22;2463;49.948;8.472;2023-09-19T14:09:38;24.30;93.30
4896;DHT22;2463;49.948;8.472;2023-09-19T14:12:05;24.30;93.40
4896;DHT22;2463;49.948;8.472;2023-09-19T14:14:33;24.40;94.40
4896;DHT22;2463;49.948;8.472;2023-09-19T14:16:59;24.50;94.50
4896;DHT22;2463;49.948;8.472;2023-09-19T14:19:27;24.50;94.90
4896;DHT22;2463;49.948;8.472;2023-09-19T14:21:54;24.60;94.40
4896;DHT22;2463;49.948;8.472;2023-09-19T14:24:23;24.30;94.10
4896;DHT22;2463;49.948;8.472;2023-09-19T14:26:50;24.30;93.90
4896;DHT22;2463;49.948;8.472;2023-09-19T14:29:17;24.30;94.40
4896;DHT22;2463;49.948;8.472;2023-09-19T14:31:44;24.30;95.40
4896;DHT22;2463;49.948;8.472;2023-09-19T14:34:10;24.30;94.30
4896;DHT22;2463;49.948;8.472;2023-09-19T14:36:38;24.30;95.00
4896;DHT22;2463;49.948;8.472;2023-09-19T14:39:07;24.40;94.50
4896;DHT22;2463;49.948;8.472;2023-09-19T14:41:37;24.40;94.70
4896;DHT22;2463;49.948;8.472;2023-09-19T14:44:04;24.50;95.50
4896;DHT22;2463;49.948;8.472;2023-09-19T14:46:31;24.60;95.40
4896;DHT22;2463;49.948;8.472;2023-09-19T14:48:58;24.60;95.40
4896;DHT22;2463;49.948;8.472;2023-09-19T14:51:30;24.70;95.30
4896;DHT22;2463;49.948;8.472;2023-09-19T14:53:57;24.70;95.20
4896;DHT22;2463;49.948;8.472;2023-09-19T14:56:26;24.80;95.40
4896;DHT22;2463;49.948;8.472;2023-09-19T14:58:54;24.80;95.10
4896;DHT22;2463;49.948;8.472;2023-09-19T15:01:21;24.80;95.80
4896;DHT22;2463;49.948;8.472;2023-09-19T15:03:48;24.90;95.50
4896;DHT22;2463;49.948;8.472;2023-09-19T15:06:16;25.00;94.20
4896;DHT22;2463;49.948;8.472;2023-09-19T15:08:47;25.00;94.90
4896;DHT22;2463;49.948;8.472;2023-09-19T15:11:18;25.10;94.60
4896;DHT22;2463;49.948;8.472;2023-09-19T15:13:46;25.10;94.60
4896;DHT22;2463;49.948;8.472;2023-09-19T15:16:13;25.20;95.40
4896;DHT22;2463;49.948;8.472;2023-09-19T15:18:42;25.20;95.40
4896;DHT22;2463;49.948;8.472;2023-09-19T15:21:11;25.20;94.30
4896;DHT22;2463;49.948;8.472;2023-09-19T15:23:39;25.10;95.30
4896;DHT22;2463;49.948;8.472;2023-09-19T15:26:14;25.00;95.40
4896;DHT22;2463;49.948;8.472;2023-09-19T15:28:47;24.90;95.50
4896;DHT22;2463;49.948;8.472;2023-09-19T15:31:15;24.80;95.60
4896;DHT22;2463;49.948;8.472;2023-09-19T15:33:42;24.70;95.70
4896;DHT22;2463;49.948;8.472;2023-09-19T15:36:12;24.50;95.00
4896;DHT22;2463;49.948;8.472;2023-09-19T15:39:08;24.40;96.10
4896;DHT22;2463;49.948;8.472;2023-09-19T15:41:39;24.40;96.00
4896;DHT22;2463;49.948;8.472;2023-09-19T15:44:15;24.30;96.10
4896;DHT22;2463;49.948;8.472;2023-09-19T15:46:43;24.20;96.70
4896;DHT22;2463;49.948;8.472;2023-09-19T15:49:11;24.10;96.20
4896;DHT22;2463;49.948;8.472;2023-09-19T15:51:38;24.00;96.00
4896;DHT22;2463;49.948;8.472;2023-09-19T15:54:12;23.90;96.80
4896;DHT22;2463;49.948;8.472;2023-09-19T15:56:43;23.80;97.10
4896;DHT22;2463;49.948;8.472;2023-09-19T15:59:10;23.80;98.10
4896;DHT22;2463;49.948;8.472;2023-09-19T16:01:39;23.70;97.50
4896;DHT22;2463;49.948;8.472;2023-09-19T16:04:12;23.70;98.00
4896;DHT22;2463;49.948;8.472;2023-09-19T16:06:40;23.60;98.50
4896;DHT22;2463;49.948;8.472;2023-09-19T16:09:08;23.60;98.60
4896;DHT22;2463;49.948;8.472;2023-09-19T16:11:36;23.50;97.90
4896;DHT22;2463;49.948;8.472;2023-09-19T16:14:03;23.40;98.60
4896;DHT22;2463;49.948;8.472;2023-09-19T16:16:36;23.40;98.80
4896;DHT22;2463;49.948;8.472;2023-09-19T16:19:05;23.30;99.10
4896;DHT22;2463;49.948;8.472;2023-09-19T16:21:37;23.20;99.40
4896;DHT22;2463;49.948;8.472;2023-09-19T16:24:04;23.10;99.30
4896;DHT22;2463;49.948;8.472;2023-09-19T16:26:35;23.00;99.00
4896;DHT22;2463;49.948;8.472;2023-09-19T16:29:01;22.90;99.50
4896;DHT22;2463;49.948;8.472;2023-09-19T16:31:29;22.90;99.90
4896;DHT22;2463;49.948;8.472;2023-09-19T16:33:57;22.90;99.90
4896;DHT22;2463;49.948;8.472;2023-09-19T16:36:26;22.80;99.90
4896;DHT22;2463;49.948;8.472;2023-09-19T16:38:53;22.60;99.90
4896;DHT22;2463;49.948;8.472;2023-09-19T16:41:20;22.70;99.90
4896;DHT22;2463;49.948;8.472;2023-09-19T16:43:47;22.60;99.90
4896;DHT22;2463;49.948;8.472;2023-09-19T16:46:14;22.60;99.90
4896;DHT22;2463;49.948;8.472;2023-09-19T16:48:45;22.50;99.90
4896;DHT22;2463;49.948;8.472;2023-09-19T16:51:15;22.50;99.90
4896;DHT22;2463;49.948;8.472;2023-09-19T16:53:42;22.50;99.90
4896;DHT22;2463;49.948;8.472;2023-09-19T16:56:13;22.50;99.90
4896;DHT22;2463;49.948;8.472;2023-09-19T16:58:43;21.40;99.90
4896;DHT22;2463;49.948;8.472;2023-09-19T17:01:11;22.40;99.90
4896;DHT22;2463;49.948;8.472;2023-09-19T17:03:40;22.30;99.90
4896;DHT22;2463;49.948;8.472;2023-09-19T17:06:08;22.20;99.90
4896;DHT22;2463;49.948;8.472;2023-09-19T17:08:40;22.10;99.90
4896;DHT22;2463;49.948;8.472;2023-09-19T17:11:09;22.10;99.90
4896;DHT22;2463;49.948;8.472;2023-09-19T17:13:40;21.90;99.90
4896;DHT22;2463;49.948;8.472;2023-09-19T17:16:12;22.00;99.90
4896;DHT22;2463;49.948;8.472;2023-09-19T17:18:39;21.90;99.90
4896;DHT22;2463;49.948;8.472;2023-09-19T17:21:10;21.80;99.90
4896;DHT22;2463;49.948;8.472;2023-09-19T17:23:40;21.70;99.90
4896;DHT22;2463;49.948;8.472;2023-09-19T17:26:09;21.70;99.90
4896;DHT22;2463;49.948;8.472;2023-09-19T17:28:37;21.60;99.90
4896;DHT22;2463;49.948;8.472;2023-09-19T17:31:10;21.50;99.90
4896;DHT22;2463;49.948;8.472;2023-09-19T17:33:42;21.50;99.90
4896;DHT22;2463;49.948;8.472;2023-09-19T17:38:41;21.40;99.90
4896;DHT22;2463;49.948;8.472;2023-09-19T17:41:08;21.40;99.90
4896;DHT22;2463;49.948;8.472;2023-09-19T17:43:36;21.30;99.90
4896;DHT22;2463;49.948;8.472;2023-09-19T17:46:12;21.30;99.90
4896;DHT22;2463;49.948;8.472;2023-09-19T17:48:41;21.20;99.90
4896;DHT22;2463;49.948;8.472;2023-09-19T17:51:11;21.10;99.90
4896;DHT22;2463;49.948;8.472;2023-09-19T17:53:39;21.10;99.90
4896;DHT22;2463;49.948;8.472;2023-09-19T17:56:10;21.00;99.90
4896;DHT22;2463;49.948;8.472;2023-09-19T17:58:38;21.00;99.90
4896;DHT22;2463;49.948;8.472;2023-09-19T18:01:12;21.00;99.90
4896;DHT22;2463;49.948;8.472;2023-09-19T18:03:40;21.00;99.90
4896;DHT22;2463;49.948;8.472;2023-09-19T18:06:11;21.00;99.90
4896;DHT22;2463;49.948;8.472;2023-09-19T18:08:39;20.90;99.90
4896;DHT22;2463;49.948;8.472;2023-09-19T18:11:12;20.90;99.90
4896;DHT22;2463;49.948;8.472;2023-09-19T18:13:43;20.90;99.90
4896;DHT22;2463;49.948;8.472;2023-09-19T18:16:10;20.80;99.90
4896;DHT22;2463;49.948;8.472;2023-09-19T18:18:38;20.80;99.90
4896;DHT22;2463;49.948;8.472;2023-09-19T18:21:05;20.80;99.90